createdAt,value
2018-08-18T00:01:05.573Z,6.80
2018-08-18T00:03:33.870Z,5.80
2018-08-18T00:06:02.261Z,6.83
2018-08-18T00:08:30.562Z,7.47
2018-08-18T00:10:59.070Z,7.87
2018-08-18T00:13:27.457Z,4.87
2018-08-18T00:20:09.912Z,6.47
2018-08-18T00:22:38.550Z,7.07
2018-08-18T00:25:07.073Z,8.63
2018-08-18T00:27:35.673Z,7.80
2018-08-18T00:30:10.249Z,9.60
2018-08-18T00:32:38.730Z,7.57
2018-08-18T00:35:08.093Z,4.70
2018-08-18T00:37:36.707Z,9.07
2018-08-18T00:40:07.531Z,11.23
2018-08-18T00:42:35.937Z,14.20
2018-08-18T00:45:05.182Z,7.77
2018-08-18T00:47:33.958Z,7.77
2018-08-18T00:50:03.441Z,8.27
2018-08-18T00:52:31.908Z,7.37
2018-08-18T00:55:00.630Z,5.87
2018-08-18T00:57:30.302Z,7.00
2018-08-18T00:59:59.409Z,6.83
2018-08-18T01:02:28.675Z,9.03
2018-08-18T01:04:58.783Z,7.60
2018-08-18T01:07:28.449Z,8.37
2018-08-18T01:09:57.280Z,8.03
2018-08-18T01:12:26.594Z,5.13
2018-08-18T01:14:55.676Z,8.65
2018-08-18T01:17:24.339Z,8.27
2018-08-18T01:19:54.222Z,8.53
2018-08-18T01:22:22.661Z,7.63
2018-08-18T01:24:52.195Z,6.40
2018-08-18T01:27:20.875Z,6.33
2018-08-18T01:29:55.022Z,11.00
2018-08-18T01:32:23.923Z,6.37
2018-08-18T01:34:53.101Z,6.80
2018-08-18T01:37:21.786Z,11.17
2018-08-18T01:39:51.786Z,7.13
2018-08-18T01:42:20.237Z,7.35
2018-08-18T01:44:50.093Z,7.63
2018-08-18T01:47:19.428Z,9.33
2018-08-18T01:49:47.831Z,7.90
2018-08-18T01:52:21.710Z,7.73
2018-08-18T01:54:50.193Z,9.63
2018-08-18T01:57:19.202Z,6.37
2018-08-18T01:59:48.058Z,9.43
2018-08-18T02:02:18.211Z,9.83
2018-08-18T02:04:47.605Z,11.70
2018-08-18T02:07:22.987Z,13.93
2018-08-18T02:09:51.399Z,10.80
2018-08-18T02:12:20.079Z,10.27
2018-08-18T02:14:48.573Z,7.57
2018-08-18T02:17:22.701Z,8.80
2018-08-18T02:19:52.726Z,7.43
2018-08-18T02:22:21.992Z,7.30
2018-08-18T02:24:51.944Z,9.80
2018-08-18T02:27:20.381Z,9.03
2018-08-18T02:30:00.522Z,8.53
2018-08-18T02:32:33.039Z,8.87
2018-08-18T02:35:01.473Z,10.85
2018-08-18T02:37:31.277Z,11.63
2018-08-18T02:39:59.856Z,6.50
2018-08-18T02:42:28.264Z,8.73
2018-08-18T02:44:56.706Z,8.67
2018-08-18T02:47:25.303Z,8.23
2018-08-18T02:49:54.716Z,6.60
2018-08-18T02:52:27.965Z,9.93
2018-08-18T02:55:02.616Z,8.60
2018-08-18T02:57:34.947Z,9.50
2018-08-18T03:00:05.644Z,10.10
2018-08-18T03:02:34.382Z,9.93
2018-08-18T03:05:03.173Z,8.93
2018-08-18T03:07:33.238Z,11.17
2018-08-18T03:10:08.247Z,7.60
2018-08-18T03:12:43.060Z,10.20
2018-08-18T03:15:13.920Z,6.83
2018-08-18T03:17:42.523Z,10.27
2018-08-18T03:20:10.988Z,9.23
2018-08-18T03:22:40.350Z,8.53
2018-08-18T03:25:09.244Z,12.87
2018-08-18T03:27:37.777Z,9.53
2018-08-18T03:30:06.372Z,9.47
2018-08-18T03:32:34.972Z,9.47
2018-08-18T03:35:03.503Z,6.53
2018-08-18T03:37:32.284Z,6.50
2018-08-18T03:40:00.987Z,8.87
2018-08-18T03:42:35.726Z,7.83
2018-08-18T03:45:06.601Z,8.43
2018-08-18T03:47:35.183Z,6.27
2018-08-18T03:50:04.215Z,11.73
2018-08-18T03:52:32.923Z,8.60
2018-08-18T03:55:01.541Z,9.00
2018-08-18T03:57:45.892Z,6.43
2018-08-18T04:00:15.007Z,6.83
2018-08-18T04:02:43.503Z,6.90
2018-08-18T04:05:11.947Z,9.63
2018-08-18T04:07:45.717Z,10.70
2018-08-18T04:10:14.250Z,9.70
2018-08-18T04:12:42.966Z,9.83
2018-08-18T04:15:11.555Z,6.00
2018-08-18T04:17:40.098Z,8.13
2018-08-18T04:20:09.904Z,6.70
2018-08-18T04:22:38.722Z,8.73
2018-08-18T04:25:07.370Z,7.60
2018-08-18T04:27:41.909Z,8.73
2018-08-18T04:30:15.827Z,8.03
2018-08-18T04:32:55.165Z,7.13
2018-08-18T04:35:25.156Z,8.23
2018-08-18T04:37:54.694Z,8.10
2018-08-18T04:40:23.916Z,8.50
2018-08-18T04:42:52.452Z,6.73
2018-08-18T04:45:21.956Z,9.70
2018-08-18T04:47:50.473Z,8.37
2018-08-18T04:50:19.937Z,8.80
2018-08-18T04:52:48.639Z,11.83
2018-08-18T04:55:18.186Z,12.33
2018-08-18T04:57:47.078Z,8.67
2018-08-18T05:00:16.125Z,7.67
2018-08-18T05:02:52.866Z,7.50
2018-08-18T05:05:24.750Z,8.13
2018-08-18T05:07:53.283Z,8.90
2018-08-18T05:10:22.411Z,7.70
2018-08-18T05:12:51.118Z,9.77
2018-08-18T05:15:20.115Z,9.77
2018-08-18T05:17:49.998Z,12.60
2018-08-18T05:20:21.073Z,9.40
2018-08-18T05:22:49.625Z,8.13
2018-08-18T05:25:19.518Z,9.43
2018-08-18T05:27:48.182Z,8.97
2018-08-18T05:30:16.687Z,10.57
2018-08-18T05:32:45.174Z,8.60
2018-08-18T05:35:13.730Z,11.10
2018-08-18T05:37:42.600Z,11.33
2018-08-18T05:40:11.071Z,8.97
2018-08-18T05:42:39.445Z,9.30
2018-08-18T05:45:21.137Z,9.30
2018-08-18T05:47:51.764Z,10.57
2018-08-18T05:50:21.227Z,8.30
2018-08-18T05:52:49.741Z,11.87
2018-08-18T05:55:18.207Z,14.13
2018-08-18T05:57:46.740Z,12.97
2018-08-18T06:00:18.742Z,11.50
2018-08-18T06:02:52.524Z,12.73
2018-08-18T06:05:21.012Z,14.33
2018-08-18T06:07:49.543Z,11.73
2018-08-18T06:10:18.218Z,10.67
2018-08-18T06:12:46.839Z,10.90
2018-08-18T06:15:15.422Z,9.97
2018-08-18T06:17:44.023Z,7.67
2018-08-18T06:20:12.577Z,7.67
2018-08-18T06:22:43.571Z,8.67
2018-08-18T06:25:12.043Z,9.03
2018-08-18T06:27:42.467Z,9.50
2018-08-18T06:30:11.060Z,9.10
2018-08-18T06:32:40.008Z,9.33
2018-08-18T06:35:08.591Z,9.87
2018-08-18T06:37:37.188Z,12.83
2018-08-18T06:40:05.985Z,14.20
2018-08-18T06:42:37.589Z,17.73
2018-08-18T06:45:13.466Z,17.97
2018-08-18T06:47:42.820Z,13.53
2018-08-18T06:50:14.427Z,12.37
2018-08-18T06:52:43.615Z,13.63
2018-08-18T06:55:15.329Z,15.27
2018-08-18T06:57:49.126Z,12.37
2018-08-18T07:00:19.614Z,11.63
2018-08-18T07:02:48.348Z,13.97
2018-08-18T07:05:18.082Z,14.70
2018-08-18T07:07:47.518Z,13.53
2018-08-18T07:10:29.130Z,15.87
2018-08-18T07:13:01.104Z,15.63
2018-08-18T07:15:31.105Z,17.07
2018-08-18T07:17:59.627Z,18.93
2018-08-18T07:20:28.062Z,16.17
2018-08-18T07:22:56.646Z,16.87
2018-08-18T07:25:25.329Z,17.57
2018-08-18T07:28:00.134Z,14.50
2018-08-18T07:30:29.776Z,14.60
2018-08-18T07:33:00.792Z,15.20
2018-08-18T07:35:29.443Z,14.50
2018-08-18T07:37:58.227Z,12.03
2018-08-18T07:40:44.209Z,11.68
2018-08-18T07:43:21.506Z,14.37
2018-08-18T07:45:50.898Z,10.90
2018-08-18T07:48:19.441Z,9.18
2018-08-18T07:50:47.982Z,9.78
2018-08-18T07:53:16.665Z,8.38
2018-08-18T07:55:45.236Z,7.58
2018-08-18T07:58:19.692Z,7.90
2018-08-18T08:00:48.340Z,6.05
2018-08-18T08:03:17.695Z,4.20
2018-08-18T08:05:46.256Z,5.53
2018-08-18T08:08:14.811Z,3.17
2018-08-18T08:10:43.326Z,4.75
2018-08-18T08:13:13.580Z,5.35
2018-08-18T08:15:42.304Z,3.83
2018-08-18T08:18:12.665Z,4.25
2018-08-18T08:20:41.374Z,6.08
2018-08-18T08:23:10.022Z,4.20
2018-08-18T08:25:38.622Z,3.12
2018-08-18T08:28:07.400Z,3.30
2018-08-18T08:30:37.303Z,4.53
2018-08-18T08:33:05.881Z,2.90
2018-08-18T08:35:37.536Z,2.67
2018-08-18T08:38:06.243Z,2.17
2018-08-18T08:40:34.907Z,3.30
2018-08-18T08:43:03.560Z,5.42
2018-08-18T08:45:32.090Z,3.00
2018-08-18T08:48:00.582Z,3.25
2018-08-18T08:50:29.212Z,2.33
2018-08-18T08:52:58.252Z,3.75
2018-08-18T08:55:28.584Z,4.40
2018-08-18T08:57:57.062Z,5.20
2018-08-18T09:00:25.885Z,4.37
2018-08-18T09:02:54.499Z,3.47
2018-08-18T09:05:23.049Z,4.15
2018-08-18T09:07:51.577Z,3.92
2018-08-18T09:10:20.195Z,4.55
2018-08-18T09:12:48.651Z,4.95
2018-08-18T09:15:18.228Z,3.27
2018-08-18T09:17:46.745Z,4.95
2018-08-18T09:20:17.702Z,4.58
2018-08-18T09:22:53.561Z,4.92
2018-08-18T09:25:22.233Z,4.35
2018-08-18T09:27:55.340Z,3.55
2018-08-18T09:30:25.180Z,6.30
2018-08-18T09:32:54.064Z,4.05
2018-08-18T09:35:22.895Z,5.35
2018-08-18T09:37:56.533Z,5.97
2018-08-18T09:40:25.327Z,8.95
2018-08-18T09:42:54.216Z,6.53
2018-08-18T09:45:22.852Z,5.30
2018-08-18T09:47:51.640Z,3.70
2018-08-18T09:50:20.232Z,4.90
2018-08-18T09:52:48.790Z,5.75
2018-08-18T09:55:17.328Z,3.80
2018-08-18T09:57:45.860Z,5.12
2018-08-18T10:00:15.235Z,3.45
2018-08-18T10:02:44.436Z,3.12
2018-08-18T10:05:13.051Z,4.40
2018-08-18T10:07:42.260Z,3.33
2018-08-18T10:10:12.158Z,4.17
2018-08-18T10:12:41.025Z,3.95
2018-08-18T10:15:09.589Z,8.13
2018-08-18T10:17:38.159Z,5.90
2018-08-18T10:20:06.863Z,3.70
2018-08-18T10:22:35.964Z,5.87
2018-08-18T10:25:05.758Z,4.83
2018-08-18T10:27:34.553Z,8.93
2018-08-18T10:30:03.103Z,5.62
2018-08-18T10:32:31.609Z,6.97
2018-08-18T10:35:00.204Z,7.62
2018-08-18T10:37:28.957Z,5.20
2018-08-18T10:40:01.436Z,5.10
2018-08-18T10:42:31.089Z,4.08
2018-08-18T10:45:01.281Z,5.63
2018-08-18T10:47:30.131Z,4.90
2018-08-18T10:50:09.870Z,7.33
2018-08-18T10:52:49.528Z,5.10
2018-08-18T10:55:18.718Z,5.03
2018-08-18T11:02:53.069Z,4.00
2018-08-18T11:05:22.141Z,4.45
2018-08-18T11:07:56.524Z,5.55
2018-08-18T11:10:26.567Z,6.72
2018-08-18T11:12:54.959Z,6.35
2018-08-18T11:15:23.312Z,5.75
2018-08-18T11:17:51.578Z,8.93
2018-08-18T11:20:22.276Z,5.73
2018-08-18T11:23:04.931Z,6.58
2018-08-18T11:25:37.617Z,4.08
2018-08-18T11:28:06.335Z,3.60
2018-08-18T11:30:34.607Z,3.67
2018-08-18T11:33:03.439Z,4.83
2018-08-18T11:35:33.179Z,5.47
2018-08-18T11:38:10.784Z,6.57
2018-08-18T11:40:39.080Z,3.90
2018-08-18T11:43:09.920Z,4.62
2018-08-18T11:45:40.024Z,5.55
2018-08-18T11:48:10.369Z,3.70
2018-08-18T11:50:38.871Z,6.25
2018-08-18T11:53:07.408Z,5.85
2018-08-18T11:55:36.084Z,5.30
2018-08-18T11:58:06.497Z,4.95
2018-08-18T12:01:11.979Z,7.36
2018-08-18T12:03:41.277Z,4.45
2018-08-18T12:06:09.733Z,6.87
2018-08-18T12:08:37.985Z,6.42
2018-08-18T12:11:07.376Z,5.80
2018-08-18T12:13:40.818Z,3.97
2018-08-18T12:16:15.178Z,6.27
2018-08-18T12:18:44.795Z,6.53
2018-08-18T12:21:13.152Z,4.80
2018-08-18T12:23:42.885Z,7.47
2018-08-18T12:26:15.025Z,6.95
2018-08-18T12:28:48.952Z,5.35
2018-08-18T12:31:20.429Z,5.03
2018-08-18T12:33:48.784Z,7.90
2018-08-18T12:36:17.342Z,7.23
2018-08-18T12:38:49.457Z,4.70
2018-08-18T12:41:17.747Z,4.72
2018-08-18T12:43:49.767Z,7.47
2018-08-18T12:46:20.392Z,8.10
2018-08-18T12:48:49.994Z,4.70
2018-08-18T12:51:18.898Z,5.83
2018-08-18T12:53:51.599Z,4.03
2018-08-18T13:04:20.823Z,6.05
2018-08-18T13:06:51.743Z,7.00
2018-08-18T13:09:22.464Z,5.90
2018-08-18T13:11:52.439Z,7.35
2018-08-18T13:14:27.510Z,4.92
2018-08-18T13:16:56.195Z,6.75
2018-08-18T13:19:26.513Z,4.35
2018-08-18T13:21:55.002Z,5.55
2018-08-18T13:24:23.730Z,6.47
2018-08-18T13:26:53.147Z,11.15
2018-08-18T13:29:21.913Z,5.78
2018-08-18T13:31:50.317Z,5.90
2018-08-18T13:34:19.597Z,5.87
2018-08-18T13:36:47.897Z,7.42
2018-08-18T13:39:17.335Z,8.43
2018-08-18T13:41:54.350Z,4.78
2018-08-18T13:44:44.308Z,5.07
2018-08-18T13:47:18.031Z,6.25
2018-08-18T13:50:21.376Z,4.92
2018-08-18T13:52:52.521Z,4.55
2018-08-18T13:55:28.573Z,3.05
2018-08-18T13:58:01.842Z,4.83
2018-08-18T14:00:41.411Z,5.42
2018-08-18T14:03:37.216Z,3.12
2018-08-18T14:06:09.866Z,7.62
2018-08-18T14:08:44.250Z,4.93
2018-08-18T14:11:15.955Z,5.10
2018-08-18T14:13:47.515Z,4.90
2018-08-18T14:16:20.495Z,4.30
2018-08-18T14:18:55.302Z,5.83
2018-08-18T14:21:30.818Z,3.80
2018-08-18T14:24:03.394Z,5.33
2018-08-18T14:26:35.695Z,6.08
2018-08-18T14:29:10.977Z,6.03
2018-08-18T14:31:48.056Z,5.47
2018-08-18T14:34:22.442Z,7.37
2018-08-18T14:37:03.099Z,3.75
2018-08-18T14:39:44.121Z,4.70
2018-08-18T14:42:17.938Z,4.75
2018-08-18T14:44:54.343Z,7.10
2018-08-18T14:47:29.378Z,2.53
2018-08-18T14:50:22.025Z,4.60
2018-08-18T14:52:56.337Z,6.60
2018-08-18T14:55:33.177Z,3.33
2018-08-18T14:58:12.673Z,6.58
2018-08-18T15:00:50.002Z,7.05
2018-08-18T15:03:23.526Z,3.94
2018-08-18T15:05:55.398Z,6.53
2018-08-18T15:11:46.342Z,5.97
2018-08-18T15:14:21.186Z,3.65
2018-08-18T15:16:50.011Z,2.65
2018-08-18T15:19:18.498Z,5.45
2018-08-18T15:21:47.947Z,4.40
2018-08-18T15:24:16.951Z,3.22
2018-08-18T15:26:45.989Z,2.42
2018-08-18T15:29:16.655Z,4.40
2018-08-18T15:31:47.912Z,4.25
2018-08-18T15:34:17.137Z,5.35
2018-08-18T15:42:33.095Z,2.75
2018-08-18T15:45:01.727Z,3.37
2018-08-18T15:47:31.409Z,3.70
2018-08-18T15:50:00.473Z,6.67
2018-08-18T15:52:31.688Z,5.60
2018-08-18T15:59:54.324Z,5.30
2018-08-18T16:02:22.587Z,5.30
2018-08-18T16:04:51.819Z,4.50
2018-08-18T16:07:20.836Z,5.70
2018-08-18T16:09:49.264Z,3.90
2018-08-18T16:12:17.562Z,4.10
2018-08-18T16:14:46.777Z,3.67
2018-08-18T16:17:14.997Z,3.72
2018-08-18T16:19:43.334Z,3.90
2018-08-18T16:22:11.733Z,2.55
2018-08-18T16:24:43.016Z,4.55
2018-08-18T16:27:11.866Z,3.50
2018-08-18T16:29:40.541Z,6.70
2018-08-18T16:32:19.401Z,4.15
2018-08-18T16:34:49.202Z,5.57
2018-08-18T16:37:17.459Z,2.25
2018-08-18T16:39:45.729Z,2.98
2018-08-18T16:42:14.779Z,2.40
2018-08-18T16:44:44.656Z,2.84
2018-08-18T16:47:13.022Z,4.80
2018-08-18T16:49:41.347Z,4.65
2018-08-18T16:52:09.642Z,3.12
2018-08-18T16:54:38.201Z,4.47
2018-08-18T16:57:06.752Z,2.90
2018-08-18T16:59:36.573Z,4.28
2018-08-18T17:02:06.158Z,3.02
2018-08-18T17:04:35.096Z,4.45
2018-08-18T17:07:08.800Z,6.17
2018-08-18T17:09:39.503Z,4.33
2018-08-18T17:12:15.094Z,3.44
2018-08-18T17:14:43.428Z,5.83
2018-08-18T17:30:22.184Z,3.50
2018-08-18T17:32:50.543Z,3.45
2018-08-18T17:35:18.848Z,6.15
2018-08-18T17:37:47.332Z,4.57
2018-08-18T17:40:15.623Z,6.08
2018-08-18T17:42:43.957Z,4.08
2018-08-18T17:45:12.227Z,2.45
2018-08-18T17:47:44.715Z,4.85
2018-08-18T17:50:13.073Z,4.70
2018-08-18T17:52:41.393Z,5.10
2018-08-18T17:55:18.013Z,6.62
2018-08-18T17:57:46.254Z,3.85
2018-08-18T18:00:22.921Z,5.15
2018-08-18T18:02:56.210Z,6.12
2018-08-18T18:05:27.575Z,4.00
2018-08-18T18:07:58.218Z,3.65
2018-08-18T18:10:28.851Z,7.00
2018-08-18T18:12:57.171Z,4.03
2018-08-18T18:15:29.131Z,4.30
2018-08-18T18:17:58.442Z,4.50
2018-08-18T18:20:28.774Z,5.22
2018-08-18T18:22:57.145Z,4.67
2018-08-18T18:25:25.847Z,6.53
2018-08-18T18:27:54.205Z,4.45
2018-08-18T18:30:24.982Z,4.47
2018-08-18T18:32:53.355Z,5.65
2018-08-18T18:35:23.005Z,6.87
2018-08-18T18:37:51.537Z,5.95
2018-08-18T18:40:19.888Z,4.50
2018-08-18T18:42:48.157Z,4.45
2018-08-18T18:45:16.411Z,6.05
2018-08-18T18:47:45.576Z,9.45
2018-08-18T18:50:15.887Z,4.42
2018-08-18T18:52:44.264Z,7.97
2018-08-18T18:55:12.762Z,6.67
2018-08-18T18:57:56.556Z,7.07
2018-08-18T19:00:24.889Z,7.97
2018-08-18T19:02:53.106Z,8.68
2018-08-18T19:05:28.368Z,9.63
2018-08-18T19:08:09.396Z,9.43
2018-08-18T19:10:37.775Z,7.65
2018-08-18T19:13:06.157Z,7.93
2018-08-18T19:15:34.490Z,7.27
2018-08-18T19:18:02.765Z,7.93
2018-08-18T19:20:31.196Z,7.40
2018-08-18T19:23:07.130Z,9.87
2018-08-18T19:25:37.514Z,7.80
2018-08-18T19:28:05.800Z,9.43
2018-08-18T19:30:34.544Z,7.57
2018-08-18T19:33:03.388Z,8.40
2018-08-18T19:35:36.765Z,9.03
2018-08-18T19:38:06.397Z,6.90
2018-08-18T19:40:35.764Z,9.23
2018-08-18T19:43:08.079Z,8.60
2018-08-18T19:45:36.394Z,6.77
2018-08-18T19:48:04.668Z,11.00
2018-08-18T19:50:32.921Z,6.93
2018-08-18T19:53:06.706Z,9.07
2018-08-18T19:55:34.951Z,8.00
2018-08-18T19:58:03.207Z,7.87
2018-08-18T20:00:31.461Z,5.25
2018-08-18T20:03:06.512Z,6.83
2018-08-18T20:05:34.858Z,9.23
2018-08-18T20:08:03.116Z,6.40
2018-08-18T20:10:35.969Z,7.17
2018-08-18T20:13:04.223Z,7.47
2018-08-18T20:15:32.490Z,8.03
2018-08-18T20:18:00.750Z,5.90
2018-08-18T20:20:29.451Z,7.60
2018-08-18T20:22:57.723Z,8.67
2018-08-18T20:25:26.143Z,8.37
2018-08-18T20:27:54.404Z,6.43
2018-08-18T20:30:22.663Z,14.83
2018-08-18T20:32:51.874Z,10.23
2018-08-18T20:35:20.128Z,7.33
2018-08-18T20:37:48.390Z,11.10
2018-08-18T20:40:16.728Z,9.60
2018-08-18T20:42:45.140Z,10.40
2018-08-18T20:45:13.872Z,6.47
2018-08-18T20:47:45.148Z,7.93
2018-08-18T20:50:13.669Z,11.80
2018-08-18T20:52:41.990Z,7.40
2018-08-18T20:55:10.371Z,7.07
2018-08-18T20:57:38.651Z,6.17
2018-08-18T21:00:08.719Z,7.77
2018-08-18T21:02:37.065Z,7.93
2018-08-18T21:05:07.120Z,11.30
2018-08-18T21:07:35.755Z,8.73
2018-08-18T21:10:07.307Z,9.13
2018-08-18T21:12:40.835Z,10.47
2018-08-18T21:15:09.453Z,9.80
2018-08-18T21:17:37.754Z,9.17
2018-08-18T21:20:08.328Z,6.60
2018-08-18T21:22:36.711Z,10.67
2018-08-18T21:25:05.742Z,9.13
2018-08-18T21:27:35.323Z,10.08
2018-08-18T21:30:03.669Z,8.10
2018-08-18T21:32:31.905Z,10.20
2018-08-18T21:35:00.172Z,6.97
2018-08-18T21:37:28.409Z,10.17
2018-08-18T21:39:56.712Z,10.53
2018-08-18T21:42:24.946Z,11.50
2018-08-18T21:44:54.661Z,9.00
2018-08-18T21:47:22.959Z,13.33
2018-08-18T21:49:51.229Z,9.53
2018-08-18T21:52:19.525Z,11.93
2018-08-18T21:54:47.939Z,13.67
2018-08-18T21:57:16.247Z,9.63
2018-08-18T21:59:52.407Z,9.50
2018-08-18T22:02:32.481Z,12.13
2018-08-18T22:05:01.072Z,12.67
2018-08-18T22:07:34.883Z,11.67
2018-08-18T22:10:03.256Z,8.17
2018-08-18T22:12:31.553Z,8.03
2018-08-18T22:15:01.529Z,9.33
2018-08-18T22:17:29.894Z,8.88
2018-08-18T22:19:58.174Z,9.60
2018-08-18T22:22:27.653Z,7.42
2018-08-18T22:24:56.584Z,8.67
2018-08-18T22:30:27.358Z,8.47
2018-08-18T22:32:55.736Z,9.20
2018-08-18T22:35:24.606Z,13.33
2018-08-18T22:37:53.293Z,9.20
2018-08-18T22:40:21.534Z,8.57
2018-08-18T22:42:49.848Z,8.93
2018-08-18T22:45:22.549Z,9.40
2018-08-18T22:47:50.900Z,9.98
2018-08-18T22:50:19.131Z,8.63
2018-08-18T23:00:28.035Z,8.98
2018-08-18T23:02:56.298Z,10.23
2018-08-18T23:05:24.568Z,9.20
2018-08-18T23:07:54.374Z,10.33
2018-08-18T23:10:23.547Z,12.83
2018-08-18T23:12:51.841Z,12.20
2018-08-18T23:15:20.118Z,8.77
2018-08-18T23:17:48.413Z,12.93
2018-08-18T23:20:16.693Z,11.17
2018-08-18T23:22:55.992Z,10.00
2018-08-18T23:25:25.548Z,9.60
2018-08-18T23:27:54.110Z,9.53
2018-08-18T23:30:39.163Z,12.18
2018-08-18T23:33:08.815Z,11.13
2018-08-18T23:35:37.065Z,10.30
2018-08-18T23:38:05.652Z,11.80
2018-08-18T23:40:34.302Z,10.57
2018-08-18T23:43:02.611Z,11.63
2018-08-18T23:45:38.047Z,11.00
2018-08-18T23:48:08.555Z,12.57
2018-08-18T23:50:39.109Z,10.83
2018-08-18T23:53:10.075Z,11.97
2018-08-18T23:56:00.323Z,13.50
2018-08-18T23:58:29.640Z,12.03
